Startpagina
METAR-TAF:

METAR-TAF

Vliegvelden :

Vannes, Frankrijk

breedte: 47-43-19N, lengte: 2-43-41W, hoogte: 130 m

Actueel weer

Dit bericht is 27 minuten geleden gemaakt, om 02:00 UTC
Wind 8 kt uit het noordnoordoosten
Temperatuur 14°C
Vochtigheid 88%
Druk 1019 hPa
Zicht 10 km of meer
geen wolken onder 1500 m en geen cumulonimbus

METAR: LFRV 160200Z AUTO 02008KT CAVOK 14/12 Q1019

Tijdstip: 04:27 (02:27 UTC)


TAF: ontbreekt

Waarnemingen en weersverwachtingen van meer dan 4000 vliegvelden (METAR en TAF).

De beschikbare stations zijn de gele en rode punten op de kaart.

Ga met uw muis naar het station om de naam te zien.

Klik dan om waarnemingen en weersverwachtingen te zien.

kaart wijzigen: klik op de groene knoppen met een zwart kruis om in te zoomen, op de groene knop met een streepje om uit te zoomen of op de groene pijlen voor aangrenzende kaarten.


METAR-TAF: